sensor_id;sensor_type;location;lat;lon;timestamp;temperature;humidity
8178;DHT22;4130;48.740;9.132;2023-01-24T00:00:06;1.50;99.90
8178;DHT22;4130;48.740;9.132;2023-01-24T00:02:33;1.50;99.90
8178;DHT22;4130;48.740;9.132;2023-01-24T00:05:00;1.50;99.90
8178;DHT22;4130;48.740;9.132;2023-01-24T00:07:26;1.60;99.90
8178;DHT22;4130;48.740;9.132;2023-01-24T00:09:53;1.60;99.90
8178;DHT22;4130;48.740;9.132;2023-01-24T00:12:21;1.60;99.90
8178;DHT22;4130;48.740;9.132;2023-01-24T00:14:48;1.60;99.90
8178;DHT22;4130;48.740;9.132;2023-01-24T00:17:15;1.60;99.90
8178;DHT22;4130;48.740;9.132;2023-01-24T00:19:42;1.90;99.90
8178;DHT22;4130;48.740;9.132;2023-01-24T00:22:08;1.50;99.90
8178;DHT22;4130;48.740;9.132;2023-01-24T00:24:35;1.50;99.90
8178;DHT22;4130;48.740;9.132;2023-01-24T00:27:02;2.90;99.90
8178;DHT22;4130;48.740;9.132;2023-01-24T00:29:30;2.10;99.90
8178;DHT22;4130;48.740;9.132;2023-01-24T00:31:57;1.70;99.90
8178;DHT22;4130;48.740;9.132;2023-01-24T00:34:24;1.60;99.90
8178;DHT22;4130;48.740;9.132;2023-01-24T00:36:51;1.50;99.90
8178;DHT22;4130;48.740;9.132;2023-01-24T00:39:18;1.50;99.90
8178;DHT22;4130;48.740;9.132;2023-01-24T00:41:44;1.60;99.90
8178;DHT22;4130;48.740;9.132;2023-01-24T00:44:11;1.50;99.90
8178;DHT22;4130;48.740;9.132;2023-01-24T00:46:39;1.50;99.90
8178;DHT22;4130;48.740;9.132;2023-01-24T00:49:12;1.60;99.90
8178;DHT22;4130;48.740;9.132;2023-01-24T00:51:39;2.40;99.90
8178;DHT22;4130;48.740;9.132;2023-01-24T00:54:06;1.60;99.90
8178;DHT22;4130;48.740;9.132;2023-01-24T00:56:32;1.60;99.90
8178;DHT22;4130;48.740;9.132;2023-01-24T00:58:59;1.60;99.90
8178;DHT22;4130;48.740;9.132;2023-01-24T01:01:26;1.60;99.90
8178;DHT22;4130;48.740;9.132;2023-01-24T01:03:56;1.60;99.90
8178;DHT22;4130;48.740;9.132;2023-01-24T01:06:26;1.60;99.90
8178;DHT22;4130;48.740;9.132;2023-01-24T01:08:53;1.60;99.90
8178;DHT22;4130;48.740;9.132;2023-01-24T01:11:20;1.60;99.90
8178;DHT22;4130;48.740;9.132;2023-01-24T01:13:47;1.60;99.90
8178;DHT22;4130;48.740;9.132;2023-01-24T01:16:15;1.60;99.90
8178;DHT22;4130;48.740;9.132;2023-01-24T01:18:44;1.60;99.90
8178;DHT22;4130;48.740;9.132;2023-01-24T01:21:14;1.60;99.90
8178;DHT22;4130;48.740;9.132;2023-01-24T01:23:41;2.30;99.90
8178;DHT22;4130;48.740;9.132;2023-01-24T01:26:13;1.60;99.90
8178;DHT22;4130;48.740;9.132;2023-01-24T01:28:40;1.60;99.90
8178;DHT22;4130;48.740;9.132;2023-01-24T01:31:06;2.00;99.90
8178;DHT22;4130;48.740;9.132;2023-01-24T01:33:33;2.00;99.90
8178;DHT22;4130;48.740;9.132;2023-01-24T01:36:00;1.60;99.90
8178;DHT22;4130;48.740;9.132;2023-01-24T01:38:28;1.60;99.90
8178;DHT22;4130;48.740;9.132;2023-01-24T01:40:56;1.70;99.90
8178;DHT22;4130;48.740;9.132;2023-01-24T01:43:25;1.60;99.90
8178;DHT22;4130;48.740;9.132;2023-01-24T01:45:53;1.50;99.90
8178;DHT22;4130;48.740;9.132;2023-01-24T01:48:30;2.50;99.90
8178;DHT22;4130;48.740;9.132;2023-01-24T01:51:04;1.50;99.90
8178;DHT22;4130;48.740;9.132;2023-01-24T01:53:37;1.50;99.90
8178;DHT22;4130;48.740;9.132;2023-01-24T01:56:10;1.60;99.90
8178;DHT22;4130;48.740;9.132;2023-01-24T01:58:40;1.60;99.90
8178;DHT22;4130;48.740;9.132;2023-01-24T02:01:07;1.60;99.90
8178;DHT22;4130;48.740;9.132;2023-01-24T02:03:38;1.60;99.90
8178;DHT22;4130;48.740;9.132;2023-01-24T02:06:12;1.60;99.90
8178;DHT22;4130;48.740;9.132;2023-01-24T02:08:42;1.60;99.90
8178;DHT22;4130;48.740;9.132;2023-01-24T02:11:11;2.40;99.90
8178;DHT22;4130;48.740;9.132;2023-01-24T02:13:56;1.60;99.90
8178;DHT22;4130;48.740;9.132;2023-01-24T02:16:36;1.60;99.90
8178;DHT22;4130;48.740;9.132;2023-01-24T02:19:05;1.60;99.90
8178;DHT22;4130;48.740;9.132;2023-01-24T02:21:33;1.60;99.90
8178;DHT22;4130;48.740;9.132;2023-01-24T02:24:07;1.60;99.90
8178;DHT22;4130;48.740;9.132;2023-01-24T02:26:38;1.50;99.90
8178;DHT22;4130;48.740;9.132;2023-01-24T02:29:07;2.80;99.90
8178;DHT22;4130;48.740;9.132;2023-01-24T02:31:53;1.60;99.90
8178;DHT22;4130;48.740;9.132;2023-01-24T02:34:20;1.50;99.90
8178;DHT22;4130;48.740;9.132;2023-01-24T02:36:51;1.50;99.90
8178;DHT22;4130;48.740;9.132;2023-01-24T02:39:22;1.50;99.90
8178;DHT22;4130;48.740;9.132;2023-01-24T02:41:54;1.50;99.90
8178;DHT22;4130;48.740;9.132;2023-01-24T02:44:25;1.80;99.90
8178;DHT22;4130;48.740;9.132;2023-01-24T02:46:55;1.60;99.90
8178;DHT22;4130;48.740;9.132;2023-01-24T02:49:22;1.50;99.90
8178;DHT22;4130;48.740;9.132;2023-01-24T02:51:49;1.60;99.90
8178;DHT22;4130;48.740;9.132;2023-01-24T02:54:33;1.50;99.90
8178;DHT22;4130;48.740;9.132;2023-01-24T02:57:02;1.50;99.90
8178;DHT22;4130;48.740;9.132;2023-01-24T02:59:47;1.50;99.90
8178;DHT22;4130;48.740;9.132;2023-01-24T03:02:14;1.50;99.90
8178;DHT22;4130;48.740;9.132;2023-01-24T03:04:40;1.60;99.90
8178;DHT22;4130;48.740;9.132;2023-01-24T03:07:07;1.60;99.90
8178;DHT22;4130;48.740;9.132;2023-01-24T03:09:34;1.60;99.90
8178;DHT22;4130;48.740;9.132;2023-01-24T03:12:06;1.60;99.90
8178;DHT22;4130;48.740;9.132;2023-01-24T03:14:52;1.50;99.90
8178;DHT22;4130;48.740;9.132;2023-01-24T03:17:36;1.50;99.90
8178;DHT22;4130;48.740;9.132;2023-01-24T03:20:20;1.50;99.90
8178;DHT22;4130;48.740;9.132;2023-01-24T03:23:04;1.50;99.90
8178;DHT22;4130;48.740;9.132;2023-01-24T03:25:53;1.50;99.90
8178;DHT22;4130;48.740;9.132;2023-01-24T03:28:38;1.50;99.90
8178;DHT22;4130;48.740;9.132;2023-01-24T03:31:22;1.50;99.90
8178;DHT22;4130;48.740;9.132;2023-01-24T03:34:07;1.50;99.90
8178;DHT22;4130;48.740;9.132;2023-01-24T03:36:53;1.50;99.90
8178;DHT22;4130;48.740;9.132;2023-01-24T03:39:20;1.50;99.90
8178;DHT22;4130;48.740;9.132;2023-01-24T03:42:04;1.50;99.90
8178;DHT22;4130;48.740;9.132;2023-01-24T03:44:32;1.50;99.90
8178;DHT22;4130;48.740;9.132;2023-01-24T03:46:59;1.50;99.90
8178;DHT22;4130;48.740;9.132;2023-01-24T03:49:33;1.50;99.90
8178;DHT22;4130;48.740;9.132;2023-01-24T03:52:18;1.50;99.90
8178;DHT22;4130;48.740;9.132;2023-01-24T03:54:57;1.50;99.90
8178;DHT22;4130;48.740;9.132;2023-01-24T03:57:26;1.50;99.90
8178;DHT22;4130;48.740;9.132;2023-01-24T03:59:54;1.50;99.90
8178;DHT22;4130;48.740;9.132;2023-01-24T04:02:22;1.50;99.90
8178;DHT22;4130;48.740;9.132;2023-01-24T04:04:48;1.50;99.90
8178;DHT22;4130;48.740;9.132;2023-01-24T04:07:33;1.50;99.90
8178;DHT22;4130;48.740;9.132;2023-01-24T04:10:01;1.50;99.90
8178;DHT22;4130;48.740;9.132;2023-01-24T04:12:28;1.50;99.90
8178;DHT22;4130;48.740;9.132;2023-01-24T04:14:56;1.50;99.90
8178;DHT22;4130;48.740;9.132;2023-01-24T04:17:23;1.50;99.90
8178;DHT22;4130;48.740;9.132;2023-01-24T04:19:50;1.50;99.90
8178;DHT22;4130;48.740;9.132;2023-01-24T04:22:17;1.50;99.90
8178;DHT22;4130;48.740;9.132;2023-01-24T04:24:44;1.50;99.90
8178;DHT22;4130;48.740;9.132;2023-01-24T04:27:11;1.50;99.90
8178;DHT22;4130;48.740;9.132;2023-01-24T04:29:38;1.50;99.90
8178;DHT22;4130;48.740;9.132;2023-01-24T04:32:07;1.50;99.90
8178;DHT22;4130;48.740;9.132;2023-01-24T04:34:34;1.50;99.90
8178;DHT22;4130;48.740;9.132;2023-01-24T04:37:00;1.50;99.90
8178;DHT22;4130;48.740;9.132;2023-01-24T04:39:27;2.30;99.90
8178;DHT22;4130;48.740;9.132;2023-01-24T04:41:54;1.50;99.90
8178;DHT22;4130;48.740;9.132;2023-01-24T04:44:21;1.50;99.90
8178;DHT22;4130;48.740;9.132;2023-01-24T04:46:48;1.50;99.90
8178;DHT22;4130;48.740;9.132;2023-01-24T04:49:16;1.50;99.90
8178;DHT22;4130;48.740;9.132;2023-01-24T04:51:43;2.10;99.90
8178;DHT22;4130;48.740;9.132;2023-01-24T04:54:10;1.50;99.90
8178;DHT22;4130;48.740;9.132;2023-01-24T04:56:37;1.60;99.90
8178;DHT22;4130;48.740;9.132;2023-01-24T04:59:04;1.50;99.90
8178;DHT22;4130;48.740;9.132;2023-01-24T05:01:31;1.50;99.90
8178;DHT22;4130;48.740;9.132;2023-01-24T05:03:58;1.50;99.90
8178;DHT22;4130;48.740;9.132;2023-01-24T05:06:27;1.50;99.90
8178;DHT22;4130;48.740;9.132;2023-01-24T05:08:55;1.60;99.90
8178;DHT22;4130;48.740;9.132;2023-01-24T05:11:23;1.60;99.90
8178;DHT22;4130;48.740;9.132;2023-01-24T05:13:50;1.60;99.90
8178;DHT22;4130;48.740;9.132;2023-01-24T05:16:19;1.60;99.90
8178;DHT22;4130;48.740;9.132;2023-01-24T05:18:47;1.50;99.90
8178;DHT22;4130;48.740;9.132;2023-01-24T05:21:16;1.60;99.90
8178;DHT22;4130;48.740;9.132;2023-01-24T05:23:48;2.70;99.90
8178;DHT22;4130;48.740;9.132;2023-01-24T05:26:17;1.60;99.90
8178;DHT22;4130;48.740;9.132;2023-01-24T05:28:44;1.50;99.90
8178;DHT22;4130;48.740;9.132;2023-01-24T05:31:12;3.00;99.90
8178;DHT22;4130;48.740;9.132;2023-01-24T05:33:40;1.50;99.90
8178;DHT22;4130;48.740;9.132;2023-01-24T05:36:12;1.50;99.90
8178;DHT22;4130;48.740;9.132;2023-01-24T05:38:41;1.50;99.90
8178;DHT22;4130;48.740;9.132;2023-01-24T05:41:11;1.50;99.90
8178;DHT22;4130;48.740;9.132;2023-01-24T05:43:39;1.50;99.90
8178;DHT22;4130;48.740;9.132;2023-01-24T05:46:07;2.10;99.90
8178;DHT22;4130;48.740;9.132;2023-01-24T05:48:35;3.00;99.90
8178;DHT22;4130;48.740;9.132;2023-01-24T05:51:04;1.50;99.90
8178;DHT22;4130;48.740;9.132;2023-01-24T05:53:33;1.50;99.90
8178;DHT22;4130;48.740;9.132;2023-01-24T05:56:02;1.50;99.90
8178;DHT22;4130;48.740;9.132;2023-01-24T05:58:36;1.50;99.90
8178;DHT22;4130;48.740;9.132;2023-01-24T06:01:06;1.50;99.90
8178;DHT22;4130;48.740;9.132;2023-01-24T06:03:33;1.50;99.90
8178;DHT22;4130;48.740;9.132;2023-01-24T06:06:00;1.50;99.90
8178;DHT22;4130;48.740;9.132;2023-01-24T06:08:28;1.50;99.90
8178;DHT22;4130;48.740;9.132;2023-01-24T06:11:00;1.50;99.90
8178;DHT22;4130;48.740;9.132;2023-01-24T06:13:27;1.50;99.90
8178;DHT22;4130;48.740;9.132;2023-01-24T06:16:02;2.50;99.90
8178;DHT22;4130;48.740;9.132;2023-01-24T06:18:29;2.20;99.90
8178;DHT22;4130;48.740;9.132;2023-01-24T06:20:57;1.50;99.90
8178;DHT22;4130;48.740;9.132;2023-01-24T06:23:26;1.50;99.90
8178;DHT22;4130;48.740;9.132;2023-01-24T06:25:53;1.50;99.90
8178;DHT22;4130;48.740;9.132;2023-01-24T06:28:20;1.50;99.90
8178;DHT22;4130;48.740;9.132;2023-01-24T06:30:59;1.50;99.90
8178;DHT22;4130;48.740;9.132;2023-01-24T06:33:36;1.50;99.90
8178;DHT22;4130;48.740;9.132;2023-01-24T06:36:19;1.50;99.90
8178;DHT22;4130;48.740;9.132;2023-01-24T06:38:48;1.50;99.90
8178;DHT22;4130;48.740;9.132;2023-01-24T06:41:17;1.50;99.90
8178;DHT22;4130;48.740;9.132;2023-01-24T06:43:45;1.50;99.90
8178;DHT22;4130;48.740;9.132;2023-01-24T06:46:12;1.50;99.90
8178;DHT22;4130;48.740;9.132;2023-01-24T06:48:43;1.50;99.90
8178;DHT22;4130;48.740;9.132;2023-01-24T06:51:12;2.20;99.90
8178;DHT22;4130;48.740;9.132;2023-01-24T06:53:39;2.40;99.90
8178;DHT22;4130;48.740;9.132;2023-01-24T06:56:07;1.50;99.90
8178;DHT22;4130;48.740;9.132;2023-01-24T06:58:35;1.60;99.90
8178;DHT22;4130;48.740;9.132;2023-01-24T07:01:02;1.50;99.90
8178;DHT22;4130;48.740;9.132;2023-01-24T07:03:29;2.30;99.90
8178;DHT22;4130;48.740;9.132;2023-01-24T07:05:57;1.60;99.90
8178;DHT22;4130;48.740;9.132;2023-01-24T07:08:25;1.60;99.90
8178;DHT22;4130;48.740;9.132;2023-01-24T07:10:51;1.50;99.90
8178;DHT22;4130;48.740;9.132;2023-01-24T07:13:18;1.60;99.90
8178;DHT22;4130;48.740;9.132;2023-01-24T07:15:46;1.60;99.90
8178;DHT22;4130;48.740;9.132;2023-01-24T07:18:16;1.60;99.90
8178;DHT22;4130;48.740;9.132;2023-01-24T07:20:44;1.60;99.90
8178;DHT22;4130;48.740;9.132;2023-01-24T07:23:19;1.60;99.90
8178;DHT22;4130;48.740;9.132;2023-01-24T07:25:49;1.50;99.90
8178;DHT22;4130;48.740;9.132;2023-01-24T07:28:16;1.50;99.90
8178;DHT22;4130;48.740;9.132;2023-01-24T07:30:44;1.50;99.90
8178;DHT22;4130;48.740;9.132;2023-01-24T07:33:11;1.50;99.90
8178;DHT22;4130;48.740;9.132;2023-01-24T07:35:39;1.60;99.90
8178;DHT22;4130;48.740;9.132;2023-01-24T07:38:06;2.00;99.90
8178;DHT22;4130;48.740;9.132;2023-01-24T07:40:35;1.60;99.90
8178;DHT22;4130;48.740;9.132;2023-01-24T07:43:03;2.70;99.90
8178;DHT22;4130;48.740;9.132;2023-01-24T07:45:30;1.60;99.90
8178;DHT22;4130;48.740;9.132;2023-01-24T07:48:00;1.60;99.90
8178;DHT22;4130;48.740;9.132;2023-01-24T07:50:27;1.60;99.90
8178;DHT22;4130;48.740;9.132;2023-01-24T07:52:57;1.60;99.90
8178;DHT22;4130;48.740;9.132;2023-01-24T07:55:26;1.60;99.90
8178;DHT22;4130;48.740;9.132;2023-01-24T07:57:58;1.60;99.90
8178;DHT22;4130;48.740;9.132;2023-01-24T08:00:26;1.70;99.90
8178;DHT22;4130;48.740;9.132;2023-01-24T08:02:54;2.80;99.90
8178;DHT22;4130;48.740;9.132;2023-01-24T08:05:21;1.70;99.90
8178;DHT22;4130;48.740;9.132;2023-01-24T08:07:48;1.60;99.90
8178;DHT22;4130;48.740;9.132;2023-01-24T08:10:16;1.70;99.90
8178;DHT22;4130;48.740;9.132;2023-01-24T08:12:43;1.70;99.90
8178;DHT22;4130;48.740;9.132;2023-01-24T08:15:11;1.70;99.90
8178;DHT22;4130;48.740;9.132;2023-01-24T08:17:38;1.70;99.90
8178;DHT22;4130;48.740;9.132;2023-01-24T08:20:06;1.70;99.90
8178;DHT22;4130;48.740;9.132;2023-01-24T08:22:34;1.70;99.90
8178;DHT22;4130;48.740;9.132;2023-01-24T08:25:01;1.80;99.90
8178;DHT22;4130;48.740;9.132;2023-01-24T08:27:28;1.70;99.90
8178;DHT22;4130;48.740;9.132;2023-01-24T08:29:55;1.80;99.90
8178;DHT22;4130;48.740;9.132;2023-01-24T08:32:24;1.70;99.90
8178;DHT22;4130;48.740;9.132;2023-01-24T08:34:51;1.90;99.90
8178;DHT22;4130;48.740;9.132;2023-01-24T08:37:18;1.90;99.90
8178;DHT22;4130;48.740;9.132;2023-01-24T08:39:44;2.00;99.90
8178;DHT22;4130;48.740;9.132;2023-01-24T08:42:12;2.00;99.90
8178;DHT22;4130;48.740;9.132;2023-01-24T08:44:38;2.00;99.90
8178;DHT22;4130;48.740;9.132;2023-01-24T08:47:05;2.10;99.90
8178;DHT22;4130;48.740;9.132;2023-01-24T08:49:33;2.20;99.90
8178;DHT22;4130;48.740;9.132;2023-01-24T08:52:00;2.10;99.90
8178;DHT22;4130;48.740;9.132;2023-01-24T08:54:28;2.60;99.90
8178;DHT22;4130;48.740;9.132;2023-01-24T08:56:55;2.10;99.90
8178;DHT22;4130;48.740;9.132;2023-01-24T08:59:22;2.10;99.90
8178;DHT22;4130;48.740;9.132;2023-01-24T09:01:49;2.20;99.90
8178;DHT22;4130;48.740;9.132;2023-01-24T09:04:16;2.20;99.90
8178;DHT22;4130;48.740;9.132;2023-01-24T09:06:44;2.30;99.90
8178;DHT22;4130;48.740;9.132;2023-01-24T09:09:11;2.30;99.90
8178;DHT22;4130;48.740;9.132;2023-01-24T09:11:38;2.20;99.90
8178;DHT22;4130;48.740;9.132;2023-01-24T09:14:05;2.30;99.90
8178;DHT22;4130;48.740;9.132;2023-01-24T09:16:32;2.30;99.90
8178;DHT22;4130;48.740;9.132;2023-01-24T09:18:59;2.40;99.90
8178;DHT22;4130;48.740;9.132;2023-01-24T09:21:26;2.40;99.90
8178;DHT22;4130;48.740;9.132;2023-01-24T09:23:55;2.40;99.90
8178;DHT22;4130;48.740;9.132;2023-01-24T09:26:22;2.40;99.90
8178;DHT22;4130;48.740;9.132;2023-01-24T09:28:49;2.40;99.90
8178;DHT22;4130;48.740;9.132;2023-01-24T09:31:15;2.40;99.90
8178;DHT22;4130;48.740;9.132;2023-01-24T09:33:43;2.20;99.90
8178;DHT22;4130;48.740;9.132;2023-01-24T09:36:10;2.40;99.90
8178;DHT22;4130;48.740;9.132;2023-01-24T09:38:39;2.40;99.90
8178;DHT22;4130;48.740;9.132;2023-01-24T09:41:19;3.70;99.90
8178;DHT22;4130;48.740;9.132;2023-01-24T09:43:52;2.50;99.90
8178;DHT22;4130;48.740;9.132;2023-01-24T09:46:26;2.50;99.90
8178;DHT22;4130;48.740;9.132;2023-01-24T09:49:01;2.60;99.90
8178;DHT22;4130;48.740;9.132;2023-01-24T09:51:31;2.60;99.90
8178;DHT22;4130;48.740;9.132;2023-01-24T09:54:03;2.60;99.90
8178;DHT22;4130;48.740;9.132;2023-01-24T09:56:34;2.60;99.90
8178;DHT22;4130;48.740;9.132;2023-01-24T09:59:12;2.60;99.90
8178;DHT22;4130;48.740;9.132;2023-01-24T10:01:41;2.60;99.90
8178;DHT22;4130;48.740;9.132;2023-01-24T10:04:18;2.60;99.90
8178;DHT22;4130;48.740;9.132;2023-01-24T10:07:30;2.60;99.90
8178;DHT22;4130;48.740;9.132;2023-01-24T10:10:10;2.60;99.90
8178;DHT22;4130;48.740;9.132;2023-01-24T10:12:50;2.70;99.90
8178;DHT22;4130;48.740;9.132;2023-01-24T10:15:27;2.60;99.90
8178;DHT22;4130;48.740;9.132;2023-01-24T10:18:10;2.60;99.90
8178;DHT22;4130;48.740;9.132;2023-01-24T10:20:50;2.60;99.90
8178;DHT22;4130;48.740;9.132;2023-01-24T10:23:23;2.50;99.90
8178;DHT22;4130;48.740;9.132;2023-01-24T10:25:55;2.60;99.90
8178;DHT22;4130;48.740;9.132;2023-01-24T10:28:27;2.60;99.90
8178;DHT22;4130;48.740;9.132;2023-01-24T10:30:59;2.60;99.90
8178;DHT22;4130;48.740;9.132;2023-01-24T10:33:31;2.60;99.90
8178;DHT22;4130;48.740;9.132;2023-01-24T10:36:01;2.60;99.90
8178;DHT22;4130;48.740;9.132;2023-01-24T10:38:30;2.50;99.90
8178;DHT22;4130;48.740;9.132;2023-01-24T10:41:04;2.60;99.90
8178;DHT22;4130;48.740;9.132;2023-01-24T10:43:38;2.60;99.90
8178;DHT22;4130;48.740;9.132;2023-01-24T10:48:59;2.70;99.90
8178;DHT22;4130;48.740;9.132;2023-01-24T10:51:27;2.70;99.90
8178;DHT22;4130;48.740;9.132;2023-01-24T10:53:55;2.70;99.90
8178;DHT22;4130;48.740;9.132;2023-01-24T10:56:26;2.70;99.90
8178;DHT22;4130;48.740;9.132;2023-01-24T10:58:59;4.00;99.90
8178;DHT22;4130;48.740;9.132;2023-01-24T11:01:36;2.80;99.90
8178;DHT22;4130;48.740;9.132;2023-01-24T11:04:14;2.80;99.90
8178;DHT22;4130;48.740;9.132;2023-01-24T11:06:45;2.90;99.90
8178;DHT22;4130;48.740;9.132;2023-01-24T11:09:14;2.90;99.90
8178;DHT22;4130;48.740;9.132;2023-01-24T11:11:43;2.90;99.90
8178;DHT22;4130;48.740;9.132;2023-01-24T11:14:14;2.90;99.90
8178;DHT22;4130;48.740;9.132;2023-01-24T11:16:44;3.00;99.90
8178;DHT22;4130;48.740;9.132;2023-01-24T11:19:25;3.10;99.90
8178;DHT22;4130;48.740;9.132;2023-01-24T11:21:54;3.20;99.90
8178;DHT22;4130;48.740;9.132;2023-01-24T11:24:21;3.20;99.90
8178;DHT22;4130;48.740;9.132;2023-01-24T11:26:55;3.20;99.90
8178;DHT22;4130;48.740;9.132;2023-01-24T11:29:24;3.20;99.90
8178;DHT22;4130;48.740;9.132;2023-01-24T11:31:53;3.20;99.90
8178;DHT22;4130;48.740;9.132;2023-01-24T11:37:30;3.30;99.90
8178;DHT22;4130;48.740;9.132;2023-01-24T11:40:07;3.40;99.90
8178;DHT22;4130;48.740;9.132;2023-01-24T11:42:48;3.30;99.90
8178;DHT22;4130;48.740;9.132;2023-01-24T11:45:31;3.40;99.90
8178;DHT22;4130;48.740;9.132;2023-01-24T11:48:12;3.30;99.90
8178;DHT22;4130;48.740;9.132;2023-01-24T11:50:52;3.30;99.90
8178;DHT22;4130;48.740;9.132;2023-01-24T11:53:40;3.30;99.90
8178;DHT22;4130;48.740;9.132;2023-01-24T11:56:17;3.80;99.90
8178;DHT22;4130;48.740;9.132;2023-01-24T11:59:18;3.30;99.90
8178;DHT22;4130;48.740;9.132;2023-01-24T12:01:58;3.50;99.90
8178;DHT22;4130;48.740;9.132;2023-01-24T12:04:47;3.70;99.90
8178;DHT22;4130;48.740;9.132;2023-01-24T12:07:21;3.40;99.90
8178;DHT22;4130;48.740;9.132;2023-01-24T12:09:58;3.50;99.90
8178;DHT22;4130;48.740;9.132;2023-01-24T12:12:32;3.50;99.90
8178;DHT22;4130;48.740;9.132;2023-01-24T12:15:08;3.60;99.90
8178;DHT22;4130;48.740;9.132;2023-01-24T12:17:53;3.50;99.90
8178;DHT22;4130;48.740;9.132;2023-01-24T12:20:40;3.50;99.90
8178;DHT22;4130;48.740;9.132;2023-01-24T12:23:20;3.60;99.90
8178;DHT22;4130;48.740;9.132;2023-01-24T12:25:49;3.60;99.90
8178;DHT22;4130;48.740;9.132;2023-01-24T12:28:27;3.60;99.90
8178;DHT22;4130;48.740;9.132;2023-01-24T12:30:57;3.50;99.90
8178;DHT22;4130;48.740;9.132;2023-01-24T12:33:32;3.60;99.90
8178;DHT22;4130;48.740;9.132;2023-01-24T12:36:04;4.30;99.90
8178;DHT22;4130;48.740;9.132;2023-01-24T12:38:36;3.40;99.90
8178;DHT22;4130;48.740;9.132;2023-01-24T12:41:11;3.50;99.90
8178;DHT22;4130;48.740;9.132;2023-01-24T12:43:48;4.30;99.90
8178;DHT22;4130;48.740;9.132;2023-01-24T12:46:22;3.60;99.90
8178;DHT22;4130;48.740;9.132;2023-01-24T12:49:00;3.60;99.90
8178;DHT22;4130;48.740;9.132;2023-01-24T12:51:32;3.60;99.90
8178;DHT22;4130;48.740;9.132;2023-01-24T12:54:03;4.10;99.90
8178;DHT22;4130;48.740;9.132;2023-01-24T12:56:41;3.60;99.90
8178;DHT22;4130;48.740;9.132;2023-01-24T12:59:10;3.50;99.90
8178;DHT22;4130;48.740;9.132;2023-01-24T13:02:03;3.40;99.90
8178;DHT22;4130;48.740;9.132;2023-01-24T13:04:40;3.50;99.90
8178;DHT22;4130;48.740;9.132;2023-01-24T13:07:17;3.60;99.90
8178;DHT22;4130;48.740;9.132;2023-01-24T13:09:54;3.60;99.90
8178;DHT22;4130;48.740;9.132;2023-01-24T13:12:24;3.50;99.90
8178;DHT22;4130;48.740;9.132;2023-01-24T13:14:56;4.20;99.90
8178;DHT22;4130;48.740;9.132;2023-01-24T13:17:39;3.60;99.90
8178;DHT22;4130;48.740;9.132;2023-01-24T13:20:21;3.30;99.90
8178;DHT22;4130;48.740;9.132;2023-01-24T13:23:02;3.50;99.90
8178;DHT22;4130;48.740;9.132;2023-01-24T13:25:45;4.10;99.90
8178;DHT22;4130;48.740;9.132;2023-01-24T13:28:22;3.50;99.90
8178;DHT22;4130;48.740;9.132;2023-01-24T13:31:05;3.50;99.90
8178;DHT22;4130;48.740;9.132;2023-01-24T13:33:46;4.10;99.90
8178;DHT22;4130;48.740;9.132;2023-01-24T13:36:18;4.10;99.90
8178;DHT22;4130;48.740;9.132;2023-01-24T13:38:46;3.20;99.90
8178;DHT22;4130;48.740;9.132;2023-01-24T13:41:15;3.10;99.90
8178;DHT22;4130;48.740;9.132;2023-01-24T13:43:56;3.20;99.90
8178;DHT22;4130;48.740;9.132;2023-01-24T13:46:57;3.00;99.90
8178;DHT22;4130;48.740;9.132;2023-01-24T13:49:38;2.90;99.90
8178;DHT22;4130;48.740;9.132;2023-01-24T13:52:37;2.90;99.90
8178;DHT22;4130;48.740;9.132;2023-01-24T13:58:19;3.30;99.90
8178;DHT22;4130;48.740;9.132;2023-01-24T14:00:50;2.90;99.90
8178;DHT22;4130;48.740;9.132;2023-01-24T14:03:21;2.80;99.90
8178;DHT22;4130;48.740;9.132;2023-01-24T14:05:52;2.80;99.90
8178;DHT22;4130;48.740;9.132;2023-01-24T14:08:50;2.80;99.90
8178;DHT22;4130;48.740;9.132;2023-01-24T14:11:22;2.80;99.90
8178;DHT22;4130;48.740;9.132;2023-01-24T14:13:56;2.80;99.90
8178;DHT22;4130;48.740;9.132;2023-01-24T14:16:55;2.70;99.90
8178;DHT22;4130;48.740;9.132;2023-01-24T14:19:26;2.80;99.90
8178;DHT22;4130;48.740;9.132;2023-01-24T14:21:57;4.10;99.90
8178;DHT22;4130;48.740;9.132;2023-01-24T14:24:30;3.40;99.90
8178;DHT22;4130;48.740;9.132;2023-01-24T14:27:00;2.70;99.90
8178;DHT22;4130;48.740;9.132;2023-01-24T14:29:35;2.60;99.90
8178;DHT22;4130;48.740;9.132;2023-01-24T14:32:04;2.60;99.90
8178;DHT22;4130;48.740;9.132;2023-01-24T14:34:37;2.60;99.90
8178;DHT22;4130;48.740;9.132;2023-01-24T14:37:08;2.70;99.90
8178;DHT22;4130;48.740;9.132;2023-01-24T14:39:38;2.70;99.90
8178;DHT22;4130;48.740;9.132;2023-01-24T14:42:06;2.60;99.90
8178;DHT22;4130;48.740;9.132;2023-01-24T14:44:43;2.60;99.90
8178;DHT22;4130;48.740;9.132;2023-01-24T14:47:18;2.60;99.90
8178;DHT22;4130;48.740;9.132;2023-01-24T14:49:48;2.50;99.90
8178;DHT22;4130;48.740;9.132;2023-01-24T14:52:18;2.50;99.90
8178;DHT22;4130;48.740;9.132;2023-01-24T14:54:49;2.60;99.90
8178;DHT22;4130;48.740;9.132;2023-01-24T14:57:22;2.50;99.90
8178;DHT22;4130;48.740;9.132;2023-01-24T15:00:05;2.50;99.90
8178;DHT22;4130;48.740;9.132;2023-01-24T15:02:34;2.50;99.90
8178;DHT22;4130;48.740;9.132;2023-01-24T15:05:02;3.50;99.90
8178;DHT22;4130;48.740;9.132;2023-01-24T15:07:44;2.50;99.90
8178;DHT22;4130;48.740;9.132;2023-01-24T15:10:13;2.60;99.90
8178;DHT22;4130;48.740;9.132;2023-01-24T15:12:51;3.20;99.90
8178;DHT22;4130;48.740;9.132;2023-01-24T15:15:18;2.50;99.90
8178;DHT22;4130;48.740;9.132;2023-01-24T15:17:47;2.40;99.90
8178;DHT22;4130;48.740;9.132;2023-01-24T15:20:19;2.50;99.90
8178;DHT22;4130;48.740;9.132;2023-01-24T15:22:49;2.40;99.90
8178;DHT22;4130;48.740;9.132;2023-01-24T15:25:21;2.80;99.90
8178;DHT22;4130;48.740;9.132;2023-01-24T15:27:48;2.30;99.90
8178;DHT22;4130;48.740;9.132;2023-01-24T15:30:17;2.80;99.90
8178;DHT22;4130;48.740;9.132;2023-01-24T15:32:46;2.40;99.90
8178;DHT22;4130;48.740;9.132;2023-01-24T15:35:29;2.40;99.90
8178;DHT22;4130;48.740;9.132;2023-01-24T15:40:59;2.30;99.90
8178;DHT22;4130;48.740;9.132;2023-01-24T15:43:29;2.40;99.90
8178;DHT22;4130;48.740;9.132;2023-01-24T15:46:22;2.30;99.90
8178;DHT22;4130;48.740;9.132;2023-01-24T15:49:24;2.30;99.90
8178;DHT22;4130;48.740;9.132;2023-01-24T15:52:19;2.30;99.90
8178;DHT22;4130;48.740;9.132;2023-01-24T15:54:48;2.30;99.90
8178;DHT22;4130;48.740;9.132;2023-01-24T15:57:23;2.50;99.90
8178;DHT22;4130;48.740;9.132;2023-01-24T15:59:53;2.30;99.90
8178;DHT22;4130;48.740;9.132;2023-01-24T16:02:20;2.30;99.90
8178;DHT22;4130;48.740;9.132;2023-01-24T16:04:47;3.60;99.90
8178;DHT22;4130;48.740;9.132;2023-01-24T16:07:33;2.20;99.90
8178;DHT22;4130;48.740;9.132;2023-01-24T16:10:00;2.30;99.90
8178;DHT22;4130;48.740;9.132;2023-01-24T16:12:29;2.20;99.90
8178;DHT22;4130;48.740;9.132;2023-01-24T16:14:57;2.60;99.90
8178;DHT22;4130;48.740;9.132;2023-01-24T16:20:00;2.20;99.90
8178;DHT22;4130;48.740;9.132;2023-01-24T16:22:27;2.20;99.90
8178;DHT22;4130;48.740;9.132;2023-01-24T16:24:55;2.20;99.90
8178;DHT22;4130;48.740;9.132;2023-01-24T16:32:30;2.10;99.90
8178;DHT22;4130;48.740;9.132;2023-01-24T16:34:58;2.10;99.90
8178;DHT22;4130;48.740;9.132;2023-01-24T16:37:27;2.10;99.90
8178;DHT22;4130;48.740;9.132;2023-01-24T16:39:55;2.10;99.90
8178;DHT22;4130;48.740;9.132;2023-01-24T16:42:22;2.10;99.90
8178;DHT22;4130;48.740;9.132;2023-01-24T16:44:54;2.00;99.90
8178;DHT22;4130;48.740;9.132;2023-01-24T16:50:32;2.00;99.90
8178;DHT22;4130;48.740;9.132;2023-01-24T16:53:03;2.00;99.90
8178;DHT22;4130;48.740;9.132;2023-01-24T16:55:31;2.00;99.90
8178;DHT22;4130;48.740;9.132;2023-01-24T16:58:00;2.00;99.90
8178;DHT22;4130;48.740;9.132;2023-01-24T17:00:27;2.00;99.90
8178;DHT22;4130;48.740;9.132;2023-01-24T17:02:54;2.00;99.90
8178;DHT22;4130;48.740;9.132;2023-01-24T17:05:25;2.00;99.90
8178;DHT22;4130;48.740;9.132;2023-01-24T17:07:54;2.00;99.90